createdAt,value
2016-11-16T00:02:25.303Z,91.7
2016-11-16T00:03:35.738Z,91.8
2016-11-16T00:04:46.175Z,91.8
2016-11-16T00:06:11.358Z,91.8
2016-11-16T00:07:21.826Z,91.7
2016-11-16T00:08:32.263Z,91.8
2016-11-16T00:09:42.698Z,92.08
2016-11-16T00:10:53.140Z,92.08
2016-11-16T00:12:03.577Z,91.6
2016-11-16T00:13:14.014Z,92.28
2016-11-16T00:14:24.459Z,92.38
2016-11-16T00:15:35.425Z,92.28
2016-11-16T00:16:46.095Z,92.47
2016-11-16T00:17:56.535Z,92.47
2016-11-16T00:19:06.978Z,93.15
2016-11-16T00:20:17.929Z,92.95
2016-11-16T00:21:28.372Z,93.15
2016-11-16T00:22:38.914Z,93.15
2016-11-16T00:23:49.357Z,92.95
2016-11-16T00:24:59.796Z,93.05
2016-11-16T00:26:10.239Z,92.85
2016-11-16T00:27:35.219Z,93.05
2016-11-16T00:30:10.868Z,93.05
2016-11-16T00:31:21.300Z,93.05
2016-11-16T00:32:31.737Z,93.24
2016-11-16T00:33:42.280Z,92.95
2016-11-16T00:34:52.719Z,92.66
2016-11-16T00:36:17.723Z,92.66
2016-11-16T00:37:28.157Z,92.76
2016-11-16T00:38:38.630Z,92.76
2016-11-16T00:39:49.165Z,92.38
2016-11-16T00:40:59.699Z,92.08
2016-11-16T00:42:10.230Z,92.66
2016-11-16T00:43:35.792Z,91.99
2016-11-16T00:46:25.908Z,92.28
2016-11-16T00:47:36.441Z,92.28
2016-11-16T00:48:47.095Z,92.47
2016-11-16T00:49:57.628Z,92.38
2016-11-16T00:51:08.187Z,92.38
2016-11-16T00:52:18.715Z,92.95
2016-11-16T00:53:29.252Z,93.05
2016-11-16T00:54:54.518Z,92.95
2016-11-16T00:56:05.058Z,93.62
2016-11-16T00:57:30.148Z,93.15
2016-11-16T00:58:40.672Z,92.95
2016-11-16T00:59:51.733Z,93.24
2016-11-16T01:01:02.481Z,93.43
2016-11-16T01:02:13.504Z,94.01
2016-11-16T01:03:24.030Z,93.33
2016-11-16T01:04:34.563Z,93.72
2016-11-16T01:05:45.194Z,93.43
2016-11-16T01:06:55.729Z,93.15
2016-11-16T01:08:06.257Z,93.43
2016-11-16T01:09:16.785Z,93.15
2016-11-16T01:10:27.313Z,92.95
2016-11-16T01:11:38.070Z,93.15
2016-11-16T01:12:48.599Z,93.15
2016-11-16T01:13:59.130Z,92.95
2016-11-16T01:15:09.663Z,92.95
2016-11-16T01:16:20.188Z,93.05
2016-11-16T01:17:30.812Z,92.95
2016-11-16T01:18:41.339Z,93.62
2016-11-16T01:19:51.870Z,93.24
2016-11-16T01:21:16.926Z,93.33
2016-11-16T01:22:27.455Z,93.24
2016-11-16T01:23:38.044Z,93.53
2016-11-16T01:24:48.511Z,92.85
2016-11-16T01:25:58.946Z,93.15
2016-11-16T01:27:09.378Z,92.76
2016-11-16T01:28:48.900Z,93.62
2016-11-16T01:29:59.337Z,93.72
2016-11-16T01:31:09.778Z,93.24
2016-11-16T01:32:20.212Z,93.62
2016-11-16T01:33:30.745Z,92.85
2016-11-16T01:34:41.181Z,92.95
2016-11-16T01:35:51.614Z,92.76
2016-11-16T01:37:02.048Z,93.91
2016-11-16T01:38:12.484Z,93.53
2016-11-16T01:39:22.926Z,93.43
2016-11-16T01:40:33.362Z,93.33
2016-11-16T01:41:43.800Z,93.43
2016-11-16T01:42:54.239Z,93.43
2016-11-16T01:44:04.684Z,93.43
2016-11-16T01:45:15.705Z,94.01
2016-11-16T01:46:26.147Z,93.91
2016-11-16T01:47:36.586Z,93.43
2016-11-16T01:48:47.022Z,93.62
2016-11-16T01:49:57.458Z,93.43
2016-11-16T01:51:22.441Z,93.53
2016-11-16T01:52:32.882Z,92.95
2016-11-16T01:53:43.315Z,93.15
2016-11-16T01:54:53.748Z,92.8
2016-11-16T01:56:04.185Z,94.2
2016-11-16T01:57:14.729Z,94.4
2016-11-16T01:58:25.167Z,94.59
2016-11-16T01:59:35.609Z,94.59
2016-11-16T02:00:46.052Z,94.59
2016-11-16T02:02:11.131Z,94.3
2016-11-16T02:03:21.567Z,94.87
2016-11-16T02:04:46.555Z,94.1
2016-11-16T02:05:56.994Z,93.91
2016-11-16T02:07:07.437Z,93.91
2016-11-16T02:08:17.879Z,94.3
2016-11-16T02:09:28.319Z,93.91
2016-11-16T02:10:38.757Z,94.4
2016-11-16T02:11:49.195Z,94.4
2016-11-16T02:12:59.831Z,94.1
2016-11-16T02:14:10.755Z,94.78
2016-11-16T02:15:35.737Z,94.68
2016-11-16T02:16:46.172Z,94.68
2016-11-16T02:17:56.613Z,94.59
2016-11-16T02:20:32.138Z,94.78
2016-11-16T02:21:42.574Z,94.1
2016-11-16T02:22:53.009Z,94.1
2016-11-16T02:24:03.550Z,94.1
2016-11-16T02:25:13.993Z,94.2
2016-11-16T02:26:24.431Z,94.4
2016-11-16T02:27:34.870Z,94.49
2016-11-16T02:28:45.510Z,94.4
2016-11-16T02:29:55.975Z,94.49
2016-11-16T02:31:06.417Z,94.49
2016-11-16T02:32:16.850Z,94.3
2016-11-16T02:33:27.286Z,93.91
2016-11-16T02:34:37.828Z,94.01
2016-11-16T02:35:48.760Z,94.4
2016-11-16T02:36:59.197Z,94.3
2016-11-16T02:38:09.635Z,94.4
2016-11-16T02:39:34.614Z,94.87
2016-11-16T02:40:45.251Z,94.1
2016-11-16T02:41:55.698Z,94.1
2016-11-16T02:43:06.138Z,94.3
2016-11-16T02:44:16.573Z,94.1
2016-11-16T02:46:51.993Z,94.68
2016-11-16T02:48:02.433Z,94.78
2016-11-16T02:50:37.891Z,94.3
2016-11-16T02:51:48.356Z,94.87
2016-11-16T02:52:59.297Z,95.26
2016-11-16T02:54:09.729Z,95.17
2016-11-16T02:55:20.203Z,95.07
2016-11-16T02:56:30.776Z,95.36
2016-11-16T02:57:41.214Z,95.26
2016-11-16T02:58:51.649Z,95.31
2016-11-16T03:00:02.087Z,95.07
2016-11-16T03:01:12.530Z,95.07
2016-11-16T03:02:22.965Z,95.17
2016-11-16T03:03:33.412Z,95.5
2016-11-16T03:04:43.848Z,95.5
2016-11-16T03:05:54.280Z,95.65
2016-11-16T03:07:04.713Z,96.47
2016-11-16T03:08:15.153Z,95.98
2016-11-16T03:09:40.131Z,95.5
2016-11-16T03:10:50.569Z,95.02
2016-11-16T03:12:15.556Z,94.87
2016-11-16T03:13:26.092Z,94.97
2016-11-16T03:14:37.015Z,95.65
2016-11-16T03:15:47.448Z,94.97
2016-11-16T03:17:12.428Z,94.97
2016-11-16T03:18:22.865Z,95.74
2016-11-16T03:19:33.302Z,95.12
2016-11-16T03:20:58.284Z,94.83
2016-11-16T03:22:08.724Z,94.97
2016-11-16T03:23:19.160Z,95.7
2016-11-16T03:24:29.601Z,95.17
2016-11-16T03:25:40.035Z,95.07
2016-11-16T03:26:50.472Z,94.97
2016-11-16T03:28:00.908Z,94.59
2016-11-16T03:29:11.348Z,95.45
2016-11-16T03:30:21.794Z,94.59
2016-11-16T03:32:57.209Z,94.49
2016-11-16T03:34:07.646Z,94.01
2016-11-16T03:35:18.088Z,94.1
2016-11-16T03:36:28.520Z,93.43
2016-11-16T03:37:38.953Z,94.49
2016-11-16T03:38:49.386Z,94.4
2016-11-16T03:39:59.961Z,94.4
2016-11-16T03:41:24.991Z,93.62
2016-11-16T03:42:49.971Z,93.53
2016-11-16T03:44:00.410Z,93.72
2016-11-16T03:45:11.070Z,93.43
2016-11-16T03:46:21.504Z,92.95
2016-11-16T03:47:31.939Z,93.15
2016-11-16T03:48:42.867Z,93.24
2016-11-16T03:49:53.788Z,93.62
2016-11-16T03:51:04.422Z,94.3
2016-11-16T03:52:14.863Z,94.01
2016-11-16T03:53:25.298Z,93.43
2016-11-16T03:54:35.733Z,93.72
2016-11-16T03:56:00.715Z,94.3
2016-11-16T03:57:11.350Z,94.2
2016-11-16T03:58:21.799Z,94.49
2016-11-16T03:59:32.237Z,93.91
2016-11-16T04:00:42.674Z,93.24
2016-11-16T04:01:53.114Z,92.76
2016-11-16T04:03:03.553Z,92.85
2016-11-16T04:04:13.989Z,92.47
2016-11-16T04:05:24.428Z,92.95
2016-11-16T04:06:34.863Z,92.38
2016-11-16T04:07:46.199Z,92.38
2016-11-16T04:08:56.634Z,92.28
2016-11-16T04:10:07.039Z,92.85
2016-11-16T04:11:17.351Z,93.33
2016-11-16T04:12:27.670Z,93.24
2016-11-16T04:13:52.760Z,93.82
2016-11-16T04:15:03.552Z,93.15
2016-11-16T04:16:13.873Z,93.15
2016-11-16T04:17:38.757Z,93.43
2016-11-16T04:20:14.060Z,94.06
2016-11-16T04:22:49.267Z,92.81
2016-11-16T04:23:59.721Z,93.53
2016-11-16T04:25:10.134Z,93.38
2016-11-16T04:26:20.545Z,94.25
2016-11-16T04:27:30.956Z,94.45
2016-11-16T04:28:41.367Z,94.06
2016-11-16T04:29:51.988Z,95.12
2016-11-16T04:31:16.980Z,94.83
2016-11-16T04:32:27.392Z,94.83
2016-11-16T04:33:37.804Z,95.6
2016-11-16T04:34:48.213Z,94.92
2016-11-16T04:35:59.213Z,95.02
2016-11-16T04:37:09.624Z,94.54
2016-11-16T04:38:20.033Z,94.06
2016-11-16T04:39:30.442Z,93.48
2016-11-16T04:40:41.052Z,94.25
2016-11-16T04:41:51.468Z,94.45
2016-11-16T04:43:01.880Z,94.92
2016-11-16T04:44:12.289Z,94.15
2016-11-16T04:45:22.699Z,94.35
2016-11-16T04:46:33.109Z,94.06
2016-11-16T04:47:43.519Z,94.25
2016-11-16T04:48:53.932Z,94.06
2016-11-16T04:50:04.394Z,94.25
2016-11-16T04:51:14.812Z,94.1
2016-11-16T04:52:25.226Z,94.1
2016-11-16T04:53:35.640Z,94.06
2016-11-16T04:54:46.055Z,94.4
2016-11-16T04:55:56.467Z,94.06
2016-11-16T04:57:06.879Z,93.68
2016-11-16T04:58:17.317Z,94.35
2016-11-16T04:59:27.728Z,94.25
2016-11-16T05:00:38.136Z,93.96
2016-11-16T05:01:48.544Z,93.58
2016-11-16T05:02:58.961Z,93.87
2016-11-16T05:04:09.473Z,94.54
2016-11-16T05:05:19.891Z,93.96
2016-11-16T05:06:30.299Z,93.29
2016-11-16T05:07:40.706Z,93.48
2016-11-16T05:09:05.675Z,93.1
2016-11-16T05:10:16.188Z,93.68
2016-11-16T05:11:26.629Z,94.15
2016-11-16T05:12:37.037Z,94.06
2016-11-16T05:13:47.451Z,95.21
2016-11-16T05:14:57.866Z,95.21
2016-11-16T05:16:08.276Z,95.21
2016-11-16T05:17:18.686Z,95.12
2016-11-16T05:18:43.643Z,94.54
2016-11-16T05:19:54.054Z,94.54
2016-11-16T05:21:04.474Z,94.54
2016-11-16T05:22:15.369Z,94.06
2016-11-16T05:23:25.775Z,93.58
2016-11-16T05:24:36.186Z,93.87
2016-11-16T05:25:46.800Z,94.54
2016-11-16T05:26:57.214Z,94.54
2016-11-16T05:28:07.629Z,94.45
2016-11-16T05:29:18.049Z,94.15
2016-11-16T05:30:28.466Z,93.58
2016-11-16T05:31:39.009Z,94.35
2016-11-16T05:32:49.448Z,93.87
2016-11-16T05:33:59.859Z,95.21
2016-11-16T05:35:24.829Z,95.02
2016-11-16T05:36:35.245Z,95.12
2016-11-16T05:38:00.203Z,95.21
2016-11-16T05:39:10.614Z,94.45
2016-11-16T05:40:21.094Z,94.54
2016-11-16T05:41:31.505Z,94.45
2016-11-16T05:42:42.416Z,94.73
2016-11-16T05:43:52.822Z,94.06
2016-11-16T05:45:03.284Z,94.15
2016-11-16T05:46:13.691Z,94.45
2016-11-16T05:47:38.853Z,93.96
2016-11-16T05:48:49.262Z,94.35
2016-11-16T05:49:59.680Z,93.38
2016-11-16T05:51:10.095Z,93.68
2016-11-16T05:52:20.537Z,94.35
2016-11-16T05:53:31.766Z,93.87
2016-11-16T05:54:42.293Z,94.25
2016-11-16T05:55:52.821Z,94.35
2016-11-16T05:57:03.356Z,94.25
2016-11-16T05:58:13.888Z,93.58
2016-11-16T05:59:24.518Z,93.48
2016-11-16T06:00:35.046Z,93.38
2016-11-16T06:01:45.577Z,94.06
2016-11-16T06:02:56.106Z,94.54
2016-11-16T06:04:06.636Z,94.88
2016-11-16T06:05:17.363Z,94.49
2016-11-16T06:06:27.894Z,94.54
2016-11-16T06:07:38.424Z,94.73
2016-11-16T06:08:48.952Z,94.06
2016-11-16T06:10:14.004Z,94.83
2016-11-16T06:11:24.531Z,95.4
2016-11-16T06:12:35.064Z,94.92
2016-11-16T06:13:45.591Z,95.55
2016-11-16T06:14:56.152Z,95.45
2016-11-16T06:16:06.819Z,95.55
2016-11-16T06:17:17.354Z,95.45
2016-11-16T06:18:27.881Z,95.36
2016-11-16T06:19:38.415Z,95.84
2016-11-16T06:20:48.947Z,95.26
2016-11-16T06:21:59.574Z,95.89
2016-11-16T06:23:24.628Z,95.02
2016-11-16T06:24:35.163Z,94.83
2016-11-16T06:25:45.702Z,95.17
2016-11-16T06:26:56.269Z,94.98
2016-11-16T06:28:06.901Z,94.98
2016-11-16T06:29:17.430Z,95.21
2016-11-16T06:30:27.958Z,94.54
2016-11-16T06:31:38.490Z,94.64
2016-11-16T06:33:03.544Z,95.31
2016-11-16T06:34:14.073Z,94.92
2016-11-16T06:35:24.599Z,95.55
2016-11-16T06:36:35.134Z,95.55
2016-11-16T06:37:45.658Z,95.55
2016-11-16T06:38:56.186Z,94.98
2016-11-16T06:40:06.727Z,95.17
2016-11-16T06:41:31.782Z,95.75
2016-11-16T06:44:07.867Z,95.55
2016-11-16T06:45:18.892Z,95.45
2016-11-16T06:46:29.422Z,94.98
2016-11-16T06:47:39.955Z,94.98
2016-11-16T06:48:50.483Z,94.98
2016-11-16T06:50:01.014Z,95.07
2016-11-16T06:51:11.545Z,94.98
2016-11-16T06:52:22.072Z,95.94
2016-11-16T06:53:32.606Z,95.65
2016-11-16T06:54:43.364Z,95.84
2016-11-16T06:56:08.422Z,95.55
2016-11-16T06:57:18.953Z,95.65
2016-11-16T06:58:29.481Z,95.36
2016-11-16T06:59:40.013Z,95.55
2016-11-16T07:00:50.743Z,94.98
2016-11-16T07:02:01.273Z,94.78
2016-11-16T07:03:11.802Z,94.98
2016-11-16T07:04:36.859Z,95.07
2016-11-16T07:05:47.499Z,95.17
2016-11-16T07:06:58.023Z,94.88
2016-11-16T07:08:08.553Z,94.98
2016-11-16T07:09:19.104Z,95.55
2016-11-16T07:10:29.834Z,95.45
2016-11-16T07:11:40.366Z,95.84
2016-11-16T07:12:50.893Z,95.84
2016-11-16T07:14:01.420Z,95.65
2016-11-16T07:15:12.016Z,95.65
2016-11-16T07:16:22.545Z,95.65
2016-11-16T07:17:33.579Z,95.36
2016-11-16T07:18:44.114Z,95.84
2016-11-16T07:19:54.644Z,95.36
2016-11-16T07:21:05.173Z,95.36
2016-11-16T07:22:15.900Z,95.84
2016-11-16T07:23:26.438Z,95.65
2016-11-16T07:24:36.971Z,96.7
2016-11-16T07:25:47.493Z,95.65
2016-11-16T07:26:58.021Z,95.75
2016-11-16T07:28:08.756Z,95.75
2016-11-16T07:29:19.313Z,95.94
2016-11-16T07:30:29.874Z,96.03
2016-11-16T07:31:40.404Z,95.94
2016-11-16T07:32:50.929Z,95.94
2016-11-16T07:34:01.461Z,95.94
2016-11-16T07:35:12.022Z,95.94
2016-11-16T07:36:22.550Z,95.45
2016-11-16T07:37:33.080Z,95.55
2016-11-16T07:38:43.616Z,95.89
2016-11-16T07:39:54.250Z,95.94
2016-11-16T07:41:04.776Z,95.65
2016-11-16T07:42:15.307Z,95.84
2016-11-16T07:43:40.362Z,95.84
2016-11-16T07:44:50.888Z,96.7
2016-11-16T07:46:01.518Z,95.84
2016-11-16T07:47:12.047Z,96.51
2016-11-16T07:48:22.576Z,96.56
2016-11-16T07:49:33.147Z,96.42
2016-11-16T07:50:43.683Z,96.03
2016-11-16T07:51:54.210Z,95.45
2016-11-16T07:53:04.777Z,96.13
2016-11-16T07:54:15.305Z,96.13
2016-11-16T07:55:25.838Z,95.75
2016-11-16T07:56:36.566Z,95.65
2016-11-16T07:57:47.094Z,95.75
2016-11-16T07:58:57.622Z,95.84
2016-11-16T08:00:08.156Z,95.55
2016-11-16T08:01:18.716Z,95.84
2016-11-16T08:02:29.344Z,95.75
2016-11-16T08:03:39.875Z,95.94
2016-11-16T08:04:50.402Z,95.36
2016-11-16T08:06:00.898Z,95.55
2016-11-16T08:07:11.306Z,95.84
2016-11-16T08:08:21.816Z,95.65
2016-11-16T08:09:32.230Z,95.65
2016-11-16T08:10:42.681Z,96.42
2016-11-16T08:11:53.117Z,96.7
2016-11-16T08:13:03.523Z,96.47
2016-11-16T08:14:13.939Z,96.37
2016-11-16T08:15:24.836Z,96.47
2016-11-16T08:16:35.246Z,96.37
2016-11-16T08:17:45.715Z,96.27
2016-11-16T08:18:56.128Z,96.75
2016-11-16T08:20:06.743Z,96.27
2016-11-16T08:21:31.703Z,97.52
2016-11-16T08:24:21.618Z,98.43
2016-11-16T08:25:32.231Z,97.91
2016-11-16T08:26:42.644Z,97.91
2016-11-16T08:27:53.059Z,97.52
2016-11-16T08:29:03.470Z,97.62
2016-11-16T08:30:13.881Z,97.71
2016-11-16T08:31:24.495Z,97.14
2016-11-16T08:32:34.936Z,97.14
2016-11-16T08:33:45.347Z,97.24
2016-11-16T08:34:55.771Z,97.52
2016-11-16T08:36:06.174Z,97.71
2016-11-16T08:37:16.721Z,98.48
2016-11-16T08:38:27.131Z,98.48
2016-11-16T08:39:37.573Z,98
2016-11-16T08:41:02.625Z,97.81
2016-11-16T08:42:13.154Z,97.24
2016-11-16T08:43:23.683Z,97.52
2016-11-16T08:44:34.212Z,97.04
2016-11-16T08:45:44.739Z,97.52
2016-11-16T08:46:55.270Z,97.91
2016-11-16T08:48:05.896Z,97.52
2016-11-16T08:49:16.422Z,97.52
2016-11-16T08:50:26.949Z,97.33
2016-11-16T08:51:37.475Z,97.33
2016-11-16T08:52:48.005Z,97.91
2016-11-16T08:53:58.538Z,97.62
2016-11-16T08:55:08.982Z,97.71
2016-11-16T08:56:19.418Z,97.42
2016-11-16T08:57:29.850Z,97.14
2016-11-16T08:58:40.289Z,97.91
2016-11-16T08:59:50.923Z,97.52
2016-11-16T09:01:01.356Z,97.62
2016-11-16T09:02:11.791Z,97.14
2016-11-16T09:03:22.227Z,96.66
2016-11-16T09:04:32.666Z,96.75
2016-11-16T09:05:43.215Z,96.37
2016-11-16T09:06:53.652Z,96.37
2016-11-16T09:08:04.088Z,96.37
2016-11-16T09:09:14.525Z,96.37
2016-11-16T09:10:24.960Z,96.08
2016-11-16T09:11:35.591Z,96.08
2016-11-16T09:12:46.015Z,95.36
2016-11-16T09:14:10.912Z,95.5
2016-11-16T09:15:21.230Z,95.79
2016-11-16T09:16:31.547Z,95.65
2016-11-16T09:17:41.889Z,95.45
2016-11-16T09:18:52.212Z,95.55
2016-11-16T09:20:02.537Z,95.07
2016-11-16T09:21:12.859Z,94.4
2016-11-16T09:22:23.377Z,95.17
2016-11-16T09:23:33.696Z,95.26
2016-11-16T09:24:44.031Z,95.75
2016-11-16T09:25:54.352Z,95.55
2016-11-16T09:27:04.668Z,95.07
2016-11-16T09:28:15.185Z,94.98
2016-11-16T09:29:40.067Z,94.88
2016-11-16T09:30:50.385Z,94.49
2016-11-16T09:33:25.586Z,94.4
2016-11-16T09:34:35.907Z,94.73
2016-11-16T09:35:46.230Z,94.25
2016-11-16T09:36:56.547Z,94.4
2016-11-16T09:38:06.910Z,93.87
2016-11-16T09:39:31.869Z,94.01
2016-11-16T09:40:42.279Z,93.58
2016-11-16T09:41:52.692Z,93
2016-11-16T09:43:03.099Z,92.91
2016-11-16T09:44:13.515Z,92.91
2016-11-16T09:45:23.928Z,93.58
2016-11-16T09:46:34.366Z,92.91
2016-11-16T09:47:45.291Z,92.91
2016-11-16T09:48:55.853Z,92.33
2016-11-16T09:50:06.384Z,91.6
2016-11-16T09:51:16.916Z,92.66
2016-11-16T09:52:27.444Z,92.47
2016-11-16T09:53:37.973Z,92.85
2016-11-16T09:54:48.501Z,92.13
2016-11-16T09:55:59.034Z,92.57
2016-11-16T09:57:24.590Z,91.7
2016-11-16T09:58:35.121Z,91.8
2016-11-16T09:59:45.690Z,91.31
2016-11-16T10:00:56.255Z,91.03
2016-11-16T10:02:21.313Z,90.93
2016-11-16T10:03:32.044Z,90.01
2016-11-16T10:04:42.605Z,90.64
2016-11-16T10:05:53.145Z,90.73
2016-11-16T10:07:03.684Z,91.13
2016-11-16T10:08:14.415Z,91.8
2016-11-16T10:09:39.470Z,92.38
2016-11-16T10:10:49.998Z,92.23
2016-11-16T10:12:00.533Z,92.57
2016-11-16T10:13:11.065Z,91.89
2016-11-16T10:14:21.595Z,91.89
2016-11-16T10:15:32.125Z,92.08
2016-11-16T10:16:42.657Z,91.51
2016-11-16T10:18:07.709Z,91.7
2016-11-16T10:19:32.769Z,91.6
2016-11-16T10:20:43.263Z,91.13
2016-11-16T10:21:53.675Z,91.65
2016-11-16T10:23:04.081Z,90.69
2016-11-16T10:24:14.696Z,90.45
2016-11-16T10:25:25.103Z,90.5
2016-11-16T10:26:35.517Z,89.92
2016-11-16T10:27:45.926Z,89.72
2016-11-16T10:28:56.339Z,89.78
2016-11-16T10:30:06.750Z,89.72
2016-11-16T10:31:17.161Z,89.43
2016-11-16T10:32:27.579Z,89.53
2016-11-16T10:33:38.035Z,89.53
2016-11-16T10:34:48.450Z,88.95
2016-11-16T10:35:59.353Z,88.76
2016-11-16T10:37:09.763Z,88.85
2016-11-16T10:38:20.174Z,89.34
2016-11-16T10:39:30.587Z,88.67
2016-11-16T10:40:40.995Z,88.9
2016-11-16T10:42:05.958Z,88.71
2016-11-16T10:43:16.373Z,88.42
2016-11-16T10:44:26.783Z,88.51
2016-11-16T10:45:37.194Z,88.9
2016-11-16T10:46:47.599Z,88.42
2016-11-16T10:48:12.758Z,88.61
2016-11-16T10:49:23.166Z,88.81
2016-11-16T10:50:33.616Z,88.51
2016-11-16T10:51:44.023Z,88.81
2016-11-16T10:52:54.626Z,89
2016-11-16T10:54:05.072Z,88.71
2016-11-16T10:55:15.521Z,89.19
2016-11-16T10:56:26.051Z,88.81
2016-11-16T10:57:51.104Z,88.04
2016-11-16T10:59:01.646Z,87.46
2016-11-16T11:00:12.173Z,87.55
2016-11-16T11:01:22.701Z,87.36
2016-11-16T11:02:33.226Z,87.46
2016-11-16T11:03:43.749Z,87.6
2016-11-16T11:04:16.262Z,87.5
2016-11-16T11:05:26.792Z,87.4
2016-11-16T11:06:37.327Z,86.63
2016-11-16T11:07:47.899Z,86.92
2016-11-16T11:08:58.828Z,87.21
2016-11-16T11:10:09.263Z,86.35
2016-11-16T11:11:19.699Z,86.73
2016-11-16T11:13:55.118Z,86.63
2016-11-16T11:15:05.904Z,86.44
2016-11-16T11:16:16.340Z,86.73
2016-11-16T11:17:26.776Z,87.02
2016-11-16T11:18:37.218Z,86.73
2016-11-16T11:19:47.654Z,86.54
2016-11-16T11:20:58.093Z,86.54
2016-11-16T11:22:08.529Z,86.29
2016-11-16T11:23:18.962Z,85.42
2016-11-16T11:24:29.402Z,85.91
2016-11-16T11:25:39.935Z,86
2016-11-16T11:26:50.366Z,86.39
2016-11-16T11:28:00.799Z,86.48
2016-11-16T11:30:50.973Z,85.23
2016-11-16T11:32:01.408Z,85.42
2016-11-16T11:33:11.851Z,84.75
2016-11-16T11:35:47.265Z,85.33
2016-11-16T11:36:57.702Z,85.61
2016-11-16T11:38:08.149Z,85.52
2016-11-16T11:39:18.596Z,85.37
2016-11-16T11:40:29.682Z,84.31
2016-11-16T11:41:40.615Z,84.21
2016-11-16T11:42:52.653Z,84.11
2016-11-16T11:44:03.099Z,82.9
2016-11-16T11:45:13.547Z,83.09
2016-11-16T11:46:24.002Z,82.81
2016-11-16T11:47:34.496Z,81.65
2016-11-16T11:48:45.444Z,81.2
2016-11-16T11:49:55.898Z,81.49
2016-11-16T11:51:06.379Z,80.43
2016-11-16T11:52:16.815Z,80.28
2016-11-16T11:53:27.255Z,79.8
2016-11-16T11:54:37.720Z,79.7
2016-11-16T11:55:48.162Z,79.22
2016-11-16T11:56:59.091Z,78.38
2016-11-16T11:59:35.005Z,77.71
2016-11-16T12:00:45.443Z,78
2016-11-16T12:01:55.886Z,77.22
2016-11-16T12:03:06.808Z,77.42
2016-11-16T12:04:17.447Z,77.26
2016-11-16T12:05:28.396Z,76.97
2016-11-16T12:06:38.832Z,76.29
2016-11-16T12:07:49.269Z,75.46
2016-11-16T12:09:00.199Z,74.4
2016-11-16T12:10:10.743Z,74.98
2016-11-16T12:11:35.725Z,74.43
2016-11-16T12:12:46.175Z,73.66
2016-11-16T12:13:56.640Z,73.95
2016-11-16T12:15:07.076Z,74.05
2016-11-16T12:16:18.021Z,73.31
2016-11-16T12:17:43.001Z,73.6
2016-11-16T12:18:53.928Z,71.76
2016-11-16T12:20:04.372Z,72.15
2016-11-16T12:21:14.811Z,71.95
2016-11-16T12:22:25.251Z,70.54
2016-11-16T12:23:35.690Z,70.54
2016-11-16T12:24:46.622Z,70.05
2016-11-16T12:25:57.963Z,70.47
2016-11-16T12:27:08.403Z,70.18
2016-11-16T12:28:18.850Z,69.5
2016-11-16T12:29:29.290Z,69.31
2016-11-16T12:30:39.733Z,68.96
2016-11-16T12:31:50.202Z,67.69
2016-11-16T12:33:00.639Z,67.92
2016-11-16T12:34:11.092Z,67.44
2016-11-16T12:35:21.536Z,67.63
2016-11-16T12:36:31.943Z,67.24
2016-11-16T12:37:42.309Z,66.79
2016-11-16T12:38:52.719Z,66.79
2016-11-16T12:40:03.137Z,65.24
2016-11-16T12:41:13.581Z,65.72
2016-11-16T12:42:23.999Z,65.63
2016-11-16T12:43:34.613Z,64.75
2016-11-16T12:44:45.025Z,65.47
2016-11-16T12:45:55.438Z,65.17
2016-11-16T12:47:05.851Z,64.49
2016-11-16T12:48:16.262Z,63.26
2016-11-16T12:49:26.674Z,63.36
2016-11-16T12:50:37.087Z,64.43
2016-11-16T12:51:47.499Z,64.78
2016-11-16T12:52:57.912Z,64.69
2016-11-16T12:54:08.335Z,65.56
2016-11-16T12:55:18.951Z,64.78
2016-11-16T12:56:43.916Z,64.98
2016-11-16T12:57:54.327Z,64.4
2016-11-16T12:59:04.736Z,64.33
2016-11-16T13:01:54.690Z,64.43
2016-11-16T13:03:05.100Z,64.43
2016-11-16T13:04:30.068Z,64.91
2016-11-16T13:05:40.504Z,65.37
2016-11-16T13:06:50.915Z,65.89
2016-11-16T13:08:01.336Z,64.43
2016-11-16T13:09:11.756Z,63.39
2016-11-16T13:10:22.210Z,63.1
2016-11-16T13:11:32.748Z,64.46
2016-11-16T13:12:43.281Z,63.1
2016-11-16T13:13:53.815Z,63.78
2016-11-16T13:15:04.356Z,62.9
2016-11-16T13:16:14.891Z,63.42
2016-11-16T13:17:25.426Z,62.54
2016-11-16T13:18:35.982Z,61.11
2016-11-16T13:19:46.533Z,61.6
2016-11-16T13:20:57.074Z,60.85
2016-11-16T13:22:08.121Z,60.24
2016-11-16T13:23:18.661Z,61.7
2016-11-16T13:24:43.725Z,59.66
2016-11-16T13:25:54.258Z,59.69
2016-11-16T13:27:04.794Z,60.75
2016-11-16T13:28:15.326Z,60.14
2016-11-16T13:29:25.958Z,60.14
2016-11-16T13:30:36.686Z,60.72
2016-11-16T13:31:47.221Z,59.69
2016-11-16T13:32:57.761Z,59.49
2016-11-16T13:34:08.830Z,59.49
2016-11-16T13:35:19.405Z,59.78
2016-11-16T13:36:29.938Z,58.13
2016-11-16T13:37:40.476Z,57.76
2016-11-16T13:38:51.025Z,56.79
2016-11-16T13:40:01.768Z,57.28
2016-11-16T13:41:12.309Z,57.67
2016-11-16T13:43:48.408Z,56.72
2016-11-16T13:46:24.969Z,57.7
2016-11-16T13:47:35.868Z,55.94
2016-11-16T13:48:46.289Z,55.46
2016-11-16T13:49:56.703Z,55.16
2016-11-16T13:51:07.316Z,56.43
2016-11-16T13:52:17.736Z,55.75
2016-11-16T13:53:42.702Z,56.5
2016-11-16T13:54:53.120Z,55.72
2016-11-16T13:56:03.548Z,56.04
2016-11-16T13:57:14.069Z,55.48
2016-11-16T13:58:24.484Z,55.07
2016-11-16T13:59:34.934Z,55.75
2016-11-16T14:00:45.343Z,55.07
2016-11-16T14:01:55.755Z,54.87
2016-11-16T14:03:06.172Z,54.5
2016-11-16T14:04:31.139Z,54.6
2016-11-16T14:05:41.560Z,55.68
2016-11-16T14:06:51.971Z,55.38
2016-11-16T14:08:16.945Z,55.68
2016-11-16T14:09:27.363Z,55.9
2016-11-16T14:10:37.783Z,56.26
2016-11-16T14:12:02.751Z,57.7
2016-11-16T14:13:13.169Z,57.7
2016-11-16T14:15:48.552Z,57.89
2016-11-16T14:16:58.968Z,56.43
2016-11-16T14:18:09.592Z,56.62
2016-11-16T14:19:20.007Z,57.11
2016-11-16T14:20:30.426Z,57.99
2016-11-16T14:21:40.841Z,58.54
2016-11-16T14:22:51.269Z,58.94
2016-11-16T14:24:01.685Z,57.47
2016-11-16T14:25:12.097Z,58.35
2016-11-16T14:26:22.509Z,58.51
2016-11-16T14:27:33.412Z,59.88
2016-11-16T14:28:44.024Z,59.85
2016-11-16T14:29:54.437Z,60.05
2016-11-16T14:31:04.856Z,60.34
2016-11-16T14:32:15.271Z,60.44
2016-11-16T14:33:25.684Z,61.21
2016-11-16T14:34:36.098Z,59.66
2016-11-16T14:35:46.514Z,59.69
2016-11-16T14:37:11.478Z,56.7
2016-11-16T14:38:21.898Z,57.09
2016-11-16T14:39:32.310Z,57.86
2016-11-16T14:40:42.726Z,58.91
2016-11-16T14:41:53.143Z,59.27
2016-11-16T14:43:03.554Z,59.95
2016-11-16T14:44:13.970Z,60.5
2016-11-16T14:45:24.384Z,60.92
2016-11-16T14:46:34.799Z,61.87
2016-11-16T14:47:59.788Z,60.72
2016-11-16T14:49:10.368Z,59.56
2016-11-16T14:50:21.307Z,59.75
2016-11-16T14:51:32.753Z,59.1
2016-11-16T14:52:45.001Z,57.84
2016-11-16T14:55:50.369Z,58.03
2016-11-16T14:57:00.903Z,57.93
2016-11-16T14:58:11.443Z,58.51
2016-11-16T14:59:21.988Z,58.54
2016-11-16T15:00:32.524Z,57.47
2016-11-16T15:01:43.188Z,56.23
2016-11-16T15:02:53.725Z,56.62
2016-11-16T15:04:04.266Z,57.21
2016-11-16T15:05:14.814Z,55.85
2016-11-16T15:06:25.353Z,56.14
2016-11-16T15:07:35.891Z,54.77
2016-11-16T15:08:46.424Z,54.9
2016-11-16T15:09:56.960Z,55.16
2016-11-16T15:11:07.498Z,53.99
2016-11-16T15:12:32.599Z,55.07
2016-11-16T15:13:57.666Z,56.62
2016-11-16T15:15:08.232Z,54.68
2016-11-16T15:16:18.770Z,52.63
2016-11-16T15:17:29.311Z,52.92
2016-11-16T15:18:39.984Z,53.5
2016-11-16T15:21:15.585Z,54.97
2016-11-16T15:22:26.121Z,55.13
2016-11-16T15:23:36.703Z,53.8
2016-11-16T15:24:47.244Z,55.04
2016-11-16T15:25:57.783Z,55.62
2016-11-16T15:27:22.850Z,55.13
2016-11-16T15:28:33.388Z,55.5
2016-11-16T15:29:58.480Z,55.79
2016-11-16T15:31:09.021Z,55.4
2016-11-16T15:32:19.554Z,56.67
2016-11-16T15:33:44.715Z,55.6
2016-11-16T15:34:55.253Z,56.09
2016-11-16T15:36:06.310Z,55.5
2016-11-16T15:37:31.380Z,55.11
2016-11-16T15:38:41.920Z,55.6
2016-11-16T15:39:52.457Z,57.12
2016-11-16T15:41:03.030Z,57.12
2016-11-16T15:42:13.568Z,56.54
2016-11-16T15:43:24.103Z,56.25
2016-11-16T15:44:34.680Z,56.37
2016-11-16T15:45:45.220Z,57.15
2016-11-16T15:46:55.919Z,55.4
2016-11-16T15:48:21.539Z,56.37
2016-11-16T15:49:32.108Z,56.09
2016-11-16T15:50:42.677Z,56.25
2016-11-16T15:51:53.256Z,56.47
2016-11-16T15:53:03.798Z,55.69
2016-11-16T15:54:14.339Z,55.5
2016-11-16T15:55:24.875Z,56.27
2016-11-16T15:56:35.418Z,55.21
2016-11-16T15:57:45.957Z,55.3
2016-11-16T15:59:11.544Z,55.4
2016-11-16T16:00:22.083Z,55.33
2016-11-16T16:01:32.622Z,56.37